createdAt,value
2018-05-16T00:00:11.550Z,98.86
2018-05-16T00:01:12.364Z,98.86
2018-05-16T00:02:12.937Z,98.86
2018-05-16T00:03:13.512Z,98.86
2018-05-16T00:04:14.086Z,98.72
2018-05-16T00:05:14.659Z,99.20
2018-05-16T00:06:15.234Z,98.86
2018-05-16T00:07:15.808Z,98.68
2018-05-16T00:08:16.383Z,98.86
2018-05-16T00:09:17.005Z,98.86
2018-05-16T00:10:17.579Z,99.49
2018-05-16T00:11:18.204Z,98.72
2018-05-16T00:12:18.776Z,99.10
2018-05-16T00:13:19.352Z,98.53
2018-05-16T00:14:19.924Z,98.58
2018-05-16T00:15:20.495Z,98.05
2018-05-16T00:16:21.070Z,98.86
2018-05-16T00:17:21.654Z,97.91
2018-05-16T00:18:22.216Z,97.66
2018-05-16T00:19:22.791Z,98.72
2018-05-16T00:20:23.365Z,98.91
2018-05-16T00:21:23.936Z,99.20
2018-05-16T00:22:24.561Z,99.20
2018-05-16T00:23:25.135Z,99.30
2018-05-16T00:24:25.801Z,98.91
2018-05-16T00:25:26.374Z,99.40
2018-05-16T00:26:26.949Z,99.20
2018-05-16T00:27:27.523Z,99.30
2018-05-16T00:28:28.096Z,99.10
2018-05-16T00:29:28.722Z,99.40
2018-05-16T00:30:29.292Z,99.58
2018-05-16T00:31:29.869Z,99.78
2018-05-16T00:32:30.592Z,99.78
2018-05-16T00:33:31.166Z,99.20
2018-05-16T00:34:31.741Z,98.82
2018-05-16T00:35:32.365Z,98.72
2018-05-16T00:36:32.939Z,98.82
2018-05-16T00:37:33.512Z,98.91
2018-05-16T00:38:34.086Z,98.53
2018-05-16T00:39:34.659Z,99.01
2018-05-16T00:40:35.234Z,98.24
2018-05-16T00:41:35.807Z,98.72
2018-05-16T00:42:36.428Z,98.91
2018-05-16T00:43:37.004Z,99.01
2018-05-16T00:44:37.627Z,99.01
2018-05-16T00:45:38.204Z,99.49
2018-05-16T00:46:38.780Z,99.30
2018-05-16T00:47:39.356Z,99.40
2018-05-16T00:48:39.970Z,99.49
2018-05-16T00:50:24.888Z,99.30
2018-05-16T00:51:25.461Z,99.40
2018-05-16T00:52:26.036Z,99.30
2018-05-16T00:53:26.664Z,99.20
2018-05-16T00:54:27.235Z,99.58
2018-05-16T00:55:27.809Z,99.20
2018-05-16T00:56:28.428Z,99.49
2018-05-16T00:57:29.042Z,99.40
2018-05-16T00:58:29.615Z,99.40
2018-05-16T00:59:30.190Z,98.82
2018-05-16T01:00:30.763Z,99.58
2018-05-16T01:01:31.336Z,99.87
2018-05-16T01:02:31.909Z,99.58
2018-05-16T01:03:32.533Z,99.30
2018-05-16T01:04:33.154Z,98.82
2018-05-16T01:05:33.733Z,99.49
2018-05-16T01:06:34.301Z,98.63
2018-05-16T01:07:34.876Z,99.20
2018-05-16T01:08:35.450Z,99.49
2018-05-16T01:09:36.022Z,99.20
2018-05-16T01:10:36.595Z,99.49
2018-05-16T01:11:37.168Z,99.68
2018-05-16T01:12:37.790Z,99.99
2018-05-16T01:13:38.363Z,99.97
2018-05-16T01:14:38.935Z,99.68
2018-05-16T01:15:39.517Z,99.99
2018-05-16T01:18:43.828Z,99.99
2018-05-16T01:19:44.403Z,99.99
2018-05-16T01:20:45.017Z,99.87
2018-05-16T01:21:45.590Z,99.99
2018-05-16T01:22:46.219Z,99.97
2018-05-16T01:23:46.838Z,99.99
2018-05-16T01:24:47.411Z,99.87
2018-05-16T01:25:47.985Z,99.68
2018-05-16T01:26:48.558Z,99.87
2018-05-16T01:27:49.131Z,99.99
2018-05-16T01:29:19.501Z,99.99
2018-05-16T01:30:20.081Z,99.99
2018-05-16T01:31:20.663Z,99.99
2018-05-16T01:32:21.243Z,99.99
2018-05-16T01:33:21.823Z,99.99
2018-05-16T01:34:22.454Z,99.99
2018-05-16T01:35:23.034Z,99.99
2018-05-16T01:36:23.617Z,99.99
2018-05-16T01:37:24.196Z,99.99
2018-05-16T01:38:24.826Z,99.99
2018-05-16T01:39:25.407Z,99.99
2018-05-16T01:42:29.181Z,99.99
2018-05-16T01:43:29.777Z,99.99
2018-05-16T01:44:30.347Z,99.99
2018-05-16T01:45:30.919Z,99.99
2018-05-16T01:46:31.492Z,99.99
2018-05-16T01:47:32.065Z,99.99
2018-05-16T01:48:32.637Z,99.99
2018-05-16T01:49:33.208Z,99.63
2018-05-16T01:50:33.780Z,99.99
2018-05-16T01:51:34.353Z,99.99
2018-05-16T01:52:34.975Z,99.99
2018-05-16T01:53:35.596Z,99.97
2018-05-16T01:54:36.319Z,99.99
2018-05-16T01:55:36.931Z,99.99
2018-05-16T01:56:37.504Z,99.99
2018-05-16T01:57:38.078Z,99.99
2018-05-16T01:58:38.649Z,99.99
2018-05-16T01:59:39.222Z,99.99
2018-05-16T02:00:39.796Z,99.99
2018-05-16T02:01:40.417Z,99.99
2018-05-16T02:02:40.991Z,99.99
2018-05-16T02:03:41.564Z,99.99
2018-05-16T02:04:42.138Z,99.99
2018-05-16T02:05:42.711Z,99.99
2018-05-16T02:06:43.333Z,99.99
2018-05-16T02:07:43.906Z,99.99
2018-05-16T02:08:44.479Z,99.99
2018-05-16T02:09:45.101Z,99.99
2018-05-16T02:10:45.673Z,99.99
2018-05-16T02:11:46.295Z,99.99
2018-05-16T02:12:46.868Z,99.99
2018-05-16T02:13:47.441Z,99.99
2018-05-16T02:14:48.015Z,99.99
2018-05-16T02:15:48.588Z,99.99
2018-05-16T02:16:49.159Z,99.99
2018-05-16T02:17:49.734Z,99.99
2018-05-16T02:19:34.655Z,99.99
2018-05-16T02:20:35.282Z,99.99
2018-05-16T02:21:35.850Z,99.99
2018-05-16T02:22:36.423Z,99.99
2018-05-16T02:23:36.997Z,99.99
2018-05-16T02:24:37.572Z,99.99
2018-05-16T02:25:38.195Z,99.99
2018-05-16T02:26:38.767Z,99.99
2018-05-16T02:27:39.339Z,99.99
2018-05-16T02:28:39.963Z,99.99
2018-05-16T02:29:40.538Z,99.99
2018-05-16T02:30:41.113Z,99.99
2018-05-16T02:31:41.686Z,99.99
2018-05-16T02:32:42.267Z,99.99
2018-05-16T02:33:42.876Z,99.99
2018-05-16T02:34:43.448Z,99.99
2018-05-16T02:35:44.020Z,99.54
2018-05-16T02:36:44.595Z,99.99
2018-05-16T02:37:45.167Z,99.99
2018-05-16T02:38:45.739Z,99.99
2018-05-16T02:39:46.362Z,99.99
2018-05-16T02:40:46.934Z,99.99
2018-05-16T02:41:47.558Z,99.99
2018-05-16T02:42:48.131Z,99.99
2018-05-16T02:43:48.704Z,99.99
2018-05-16T02:44:49.277Z,99.99
2018-05-16T02:45:49.898Z,99.99
2018-05-16T02:46:50.474Z,99.99
2018-05-16T02:47:51.047Z,99.99
2018-05-16T02:48:51.619Z,99.99
2018-05-16T02:49:52.191Z,99.82
2018-05-16T02:50:52.765Z,99.99
2018-05-16T02:51:53.339Z,99.99
2018-05-16T02:52:53.912Z,99.99
2018-05-16T02:53:54.484Z,99.99
2018-05-16T02:54:55.063Z,99.63
2018-05-16T02:55:55.726Z,99.99
2018-05-16T02:56:56.307Z,99.99
2018-05-16T02:57:56.917Z,99.99
2018-05-16T02:58:57.539Z,99.99
2018-05-16T02:59:58.110Z,99.99
2018-05-16T03:00:58.834Z,99.99
2018-05-16T03:01:59.407Z,99.99
2018-05-16T03:02:59.980Z,99.99
2018-05-16T03:04:00.554Z,99.99
2018-05-16T03:05:01.128Z,99.99
2018-05-16T03:06:01.702Z,99.99
2018-05-16T03:07:02.272Z,99.99
2018-05-16T03:08:02.843Z,99.99
2018-05-16T03:09:47.774Z,99.99
2018-05-16T03:10:48.383Z,99.99
2018-05-16T03:11:48.957Z,99.99
2018-05-16T03:12:49.532Z,99.99
2018-05-16T03:13:50.103Z,99.73
2018-05-16T03:14:50.677Z,99.63
2018-05-16T03:15:51.302Z,99.99
2018-05-16T03:16:51.924Z,99.99
2018-05-16T03:17:52.496Z,99.44
2018-05-16T03:18:53.071Z,99.92
2018-05-16T03:19:53.694Z,99.99
2018-05-16T03:20:54.269Z,99.73
2018-05-16T03:21:54.842Z,99.73
2018-05-16T03:22:55.414Z,99.99
2018-05-16T03:23:55.989Z,99.92
2018-05-16T03:24:56.567Z,99.99
2018-05-16T03:25:57.135Z,99.73
2018-05-16T03:26:57.708Z,99.54
2018-05-16T03:27:58.281Z,99.44
2018-05-16T03:28:58.854Z,99.92
2018-05-16T03:29:59.426Z,99.99
2018-05-16T03:31:00.049Z,99.99
2018-05-16T03:32:00.623Z,99.99
2018-05-16T03:33:01.197Z,99.99
2018-05-16T03:34:01.769Z,99.73
2018-05-16T03:35:02.543Z,99.99
2018-05-16T03:36:03.116Z,99.73
2018-05-16T03:37:03.688Z,99.34
2018-05-16T03:38:04.262Z,99.99
2018-05-16T03:39:04.886Z,99.99
2018-05-16T03:40:05.457Z,99.73
2018-05-16T03:41:06.031Z,99.44
2018-05-16T03:42:06.609Z,99.99
2018-05-16T03:43:07.178Z,99.63
2018-05-16T03:44:07.750Z,99.99
2018-05-16T03:45:08.333Z,99.99
2018-05-16T03:46:08.896Z,99.99
2018-05-16T03:47:09.470Z,99.73
2018-05-16T03:48:10.043Z,99.99
2018-05-16T03:49:10.617Z,99.99
2018-05-16T03:50:11.191Z,99.99
2018-05-16T03:51:11.813Z,99.99
2018-05-16T03:52:12.386Z,99.99
2018-05-16T03:53:13.008Z,99.99
2018-05-16T03:54:13.635Z,99.99
2018-05-16T03:55:14.204Z,99.99
2018-05-16T03:56:14.777Z,99.99
2018-05-16T03:57:15.354Z,99.99
2018-05-16T03:58:15.927Z,99.99
2018-05-16T04:00:00.844Z,99.99
2018-05-16T04:01:01.421Z,99.73
2018-05-16T04:02:01.993Z,99.99
2018-05-16T04:03:02.566Z,99.99
2018-05-16T04:04:03.144Z,99.63
2018-05-16T04:05:03.710Z,99.10
2018-05-16T04:06:04.324Z,99.99
2018-05-16T04:07:04.899Z,99.92
2018-05-16T04:08:05.473Z,99.99
2018-05-16T04:09:06.043Z,99.99
2018-05-16T04:10:06.668Z,99.99
2018-05-16T04:11:07.240Z,99.99
2018-05-16T04:12:07.864Z,99.99
2018-05-16T04:13:08.438Z,99.99
2018-05-16T04:14:09.010Z,99.99
2018-05-16T04:15:09.583Z,99.99
2018-05-16T04:16:10.394Z,99.99
2018-05-16T04:17:10.930Z,99.99
2018-05-16T04:18:11.505Z,99.99
2018-05-16T04:19:12.077Z,99.99
2018-05-16T04:20:12.650Z,99.99
2018-05-16T04:21:13.224Z,99.99
2018-05-16T04:22:13.798Z,99.99
2018-05-16T04:23:14.370Z,99.99
2018-05-16T04:24:14.944Z,99.99
2018-05-16T04:25:15.516Z,99.99
2018-05-16T04:26:16.291Z,99.99
2018-05-16T04:27:16.865Z,99.99
2018-05-16T04:28:17.439Z,99.99
2018-05-16T04:29:18.011Z,99.99
2018-05-16T04:30:18.585Z,99.99
2018-05-16T04:31:19.212Z,99.99
2018-05-16T04:32:19.784Z,99.99
2018-05-16T04:33:20.358Z,99.99
2018-05-16T04:34:20.930Z,99.99
2018-05-16T04:35:21.553Z,99.99
2018-05-16T04:36:22.126Z,99.99
2018-05-16T04:37:22.699Z,99.99
2018-05-16T04:38:23.272Z,99.99
2018-05-16T04:39:23.845Z,99.99
2018-05-16T04:40:24.478Z,99.99
2018-05-16T04:41:25.060Z,99.99
2018-05-16T04:42:25.643Z,99.99
2018-05-16T04:43:26.225Z,99.99
2018-05-16T04:44:26.809Z,99.99
2018-05-16T04:45:27.389Z,99.99
2018-05-16T04:46:28.007Z,99.99
2018-05-16T04:47:28.589Z,99.87
2018-05-16T04:48:29.169Z,99.99
2018-05-16T04:51:15.884Z,99.99
2018-05-16T04:52:16.516Z,99.99
2018-05-16T04:53:17.096Z,99.99
2018-05-16T04:54:17.726Z,99.68
2018-05-16T04:55:18.309Z,99.99
2018-05-16T04:56:18.931Z,99.99
2018-05-16T04:57:19.510Z,99.99
2018-05-16T04:58:20.090Z,99.96
2018-05-16T04:59:20.669Z,99.99
2018-05-16T05:00:21.251Z,99.99
2018-05-16T05:01:21.829Z,99.99
2018-05-16T05:02:22.410Z,99.99
2018-05-16T05:03:22.988Z,99.99
2018-05-16T05:04:23.567Z,99.99
2018-05-16T05:05:24.196Z,99.99
2018-05-16T05:06:24.776Z,99.99
2018-05-16T05:07:25.356Z,99.29
2018-05-16T05:08:25.935Z,99.99
2018-05-16T05:10:28.176Z,99.99
2018-05-16T05:11:28.745Z,99.99
2018-05-16T05:12:29.318Z,99.99
2018-05-16T05:13:29.890Z,99.99
2018-05-16T05:14:30.461Z,99.99
2018-05-16T05:15:31.032Z,99.99
2018-05-16T05:16:31.603Z,99.99
2018-05-16T05:17:32.176Z,99.99
2018-05-16T05:18:32.892Z,99.99
2018-05-16T05:19:33.318Z,99.99
2018-05-16T05:20:33.891Z,99.99
2018-05-16T05:21:34.514Z,99.99
2018-05-16T05:22:35.086Z,99.99
2018-05-16T05:23:35.659Z,99.99
2018-05-16T05:24:36.229Z,99.99
2018-05-16T05:25:36.804Z,99.99
2018-05-16T05:26:37.377Z,99.99
2018-05-16T05:27:37.998Z,99.99
2018-05-16T05:28:38.574Z,99.99
2018-05-16T05:29:39.142Z,99.99
2018-05-16T05:30:39.816Z,99.99
2018-05-16T05:31:40.437Z,99.99
2018-05-16T05:32:41.009Z,99.99
2018-05-16T05:33:41.687Z,99.99
2018-05-16T05:34:42.257Z,99.99
2018-05-16T05:35:42.825Z,99.99
2018-05-16T05:36:43.403Z,99.99
2018-05-16T05:37:43.972Z,99.99
2018-05-16T05:38:44.543Z,99.99
2018-05-16T05:40:29.466Z,99.99
2018-05-16T05:41:30.037Z,99.99
2018-05-16T05:42:30.611Z,99.96
2018-05-16T05:43:31.186Z,99.99
2018-05-16T05:44:31.759Z,99.99
2018-05-16T05:45:32.331Z,99.99
2018-05-16T05:46:32.903Z,99.99
2018-05-16T05:47:33.477Z,99.99
2018-05-16T05:48:34.050Z,99.99
2018-05-16T05:49:34.621Z,99.99
2018-05-16T05:50:35.245Z,99.99
2018-05-16T05:51:35.870Z,99.99
2018-05-16T05:52:36.484Z,99.99
2018-05-16T05:53:37.058Z,99.99
2018-05-16T05:54:37.680Z,99.99
2018-05-16T05:55:38.254Z,99.99
2018-05-16T05:56:38.826Z,99.99
2018-05-16T05:57:39.399Z,99.99
2018-05-16T05:58:39.972Z,99.99
2018-05-16T05:59:40.545Z,99.99
2018-05-16T06:00:41.117Z,99.99
2018-05-16T06:01:41.689Z,99.99
2018-05-16T06:02:42.262Z,99.99
2018-05-16T06:03:42.838Z,99.99
2018-05-16T06:04:43.458Z,99.99
2018-05-16T06:05:44.030Z,99.99
2018-05-16T06:06:44.602Z,99.99
2018-05-16T06:07:45.176Z,99.99
2018-05-16T06:08:45.751Z,99.99
2018-05-16T06:09:46.324Z,99.99
2018-05-16T06:10:46.945Z,99.99
2018-05-16T06:11:47.569Z,99.99
2018-05-16T06:12:48.282Z,99.99
2018-05-16T06:13:48.757Z,99.99
2018-05-16T06:14:49.384Z,99.99
2018-05-16T06:15:49.955Z,99.99
2018-05-16T06:16:50.527Z,99.99
2018-05-16T06:17:51.100Z,99.99
2018-05-16T06:18:51.674Z,99.99
2018-05-16T06:19:52.272Z,99.99
2018-05-16T06:20:52.823Z,99.99
2018-05-16T06:21:53.395Z,99.99
2018-05-16T06:22:53.968Z,99.99
2018-05-16T06:23:54.542Z,99.99
2018-05-16T06:24:55.115Z,99.99
2018-05-16T06:25:55.687Z,99.99
2018-05-16T06:26:56.263Z,99.99
2018-05-16T06:27:56.835Z,99.99
2018-05-16T06:28:57.457Z,99.99
2018-05-16T06:30:42.379Z,99.99
2018-05-16T06:31:42.952Z,99.99
2018-05-16T06:32:43.580Z,99.99
2018-05-16T06:33:44.200Z,99.99
2018-05-16T06:34:44.773Z,99.99
2018-05-16T06:35:45.346Z,99.99
2018-05-16T06:36:45.925Z,99.99
2018-05-16T06:37:46.496Z,99.99
2018-05-16T06:38:47.119Z,99.99
2018-05-16T06:39:47.690Z,99.99
2018-05-16T06:40:48.262Z,99.99
2018-05-16T06:41:48.837Z,99.99
2018-05-16T06:42:49.412Z,99.99
2018-05-16T06:43:49.986Z,99.99
2018-05-16T06:44:50.609Z,99.99
2018-05-16T06:45:51.338Z,99.99
2018-05-16T06:46:51.796Z,99.99
2018-05-16T06:47:52.370Z,99.99
2018-05-16T06:48:52.993Z,99.99
2018-05-16T06:49:53.568Z,99.99
2018-05-16T06:50:54.193Z,99.99
2018-05-16T06:51:54.773Z,99.99
2018-05-16T06:52:55.341Z,99.99
2018-05-16T06:53:55.916Z,99.99
2018-05-16T06:54:56.490Z,99.99
2018-05-16T06:55:57.065Z,99.99
2018-05-16T06:56:57.639Z,99.99
2018-05-16T06:57:58.213Z,99.99
2018-05-16T06:58:58.831Z,99.99
2018-05-16T06:59:59.405Z,99.99
2018-05-16T07:01:00.031Z,99.99
2018-05-16T07:02:01.820Z,99.99
2018-05-16T07:03:02.395Z,99.99
2018-05-16T07:04:03.073Z,99.99
2018-05-16T07:05:03.545Z,99.99
2018-05-16T07:06:04.166Z,99.99
2018-05-16T07:07:04.742Z,99.99
2018-05-16T07:08:05.318Z,99.99
2018-05-16T07:09:05.944Z,99.99
2018-05-16T07:10:06.515Z,99.99
2018-05-16T07:11:07.092Z,99.99
2018-05-16T07:12:07.664Z,99.99
2018-05-16T07:13:08.235Z,99.99
2018-05-16T07:14:08.812Z,99.99
2018-05-16T07:15:09.390Z,99.99
2018-05-16T07:16:09.959Z,99.99
2018-05-16T07:17:10.534Z,99.99
2018-05-16T07:18:11.107Z,99.99
2018-05-16T07:19:11.680Z,99.99
2018-05-16T07:20:56.603Z,99.99
2018-05-16T07:21:57.228Z,99.99
2018-05-16T07:22:57.802Z,99.99
2018-05-16T07:23:58.378Z,99.99
2018-05-16T07:24:58.956Z,99.99
2018-05-16T07:25:59.733Z,99.99
2018-05-16T07:27:00.360Z,99.99
2018-05-16T07:28:00.938Z,99.99
2018-05-16T07:29:01.523Z,99.99
2018-05-16T07:30:02.098Z,99.58
2018-05-16T07:31:02.676Z,99.99
2018-05-16T07:32:03.263Z,99.99
2018-05-16T07:33:03.836Z,99.58
2018-05-16T07:34:04.429Z,99.68
2018-05-16T07:35:04.988Z,96.89
2018-05-16T07:36:05.567Z,96.13
2018-05-16T07:37:06.186Z,99.40
2018-05-16T07:38:06.764Z,99.99
2018-05-16T07:39:07.343Z,96.99
2018-05-16T07:40:07.918Z,97.66
2018-05-16T07:41:08.556Z,96.80
2018-05-16T07:42:09.076Z,96.89
2018-05-16T07:43:09.653Z,96.89
2018-05-16T07:44:10.286Z,96.89
2018-05-16T07:45:10.857Z,93.34
2018-05-16T07:46:11.489Z,96.89
2018-05-16T07:47:12.139Z,96.22
2018-05-16T07:48:12.693Z,97.14
2018-05-16T07:49:13.273Z,97.81
2018-05-16T07:50:13.851Z,98.48
2018-05-16T07:51:14.498Z,98.19
2018-05-16T07:52:15.110Z,96.75
2018-05-16T07:53:15.690Z,94.45
2018-05-16T07:54:16.309Z,95.98
2018-05-16T07:55:16.888Z,95.31
2018-05-16T07:56:17.465Z,96.94
2018-05-16T07:57:18.095Z,95.12
2018-05-16T07:58:18.674Z,94.73
2018-05-16T07:59:19.294Z,96.66
2018-05-16T08:00:19.871Z,93.01
2018-05-16T08:01:20.459Z,91.28
2018-05-16T08:02:21.069Z,94.16
2018-05-16T08:03:21.760Z,93.77
2018-05-16T08:04:22.280Z,91.28
2018-05-16T08:05:23.055Z,89.74
2018-05-16T08:06:23.633Z,85.51
2018-05-16T08:07:24.211Z,86.18
2018-05-16T08:08:24.788Z,92.14
2018-05-16T08:09:25.365Z,92.14
2018-05-16T08:11:10.344Z,88.59
2018-05-16T08:12:10.940Z,91.28
2018-05-16T08:13:11.552Z,88.78
2018-05-16T08:14:12.146Z,90.31
2018-05-16T08:15:12.750Z,92.14
2018-05-16T08:16:13.328Z,91.66
2018-05-16T08:17:13.907Z,93.73
2018-05-16T08:18:14.486Z,94.30
2018-05-16T08:19:15.065Z,94.16
2018-05-16T08:20:15.646Z,91.03
2018-05-16T08:21:16.276Z,92.57
2018-05-16T08:22:16.850Z,92.38
2018-05-16T08:23:17.427Z,92.19
2018-05-16T08:24:18.006Z,90.75
2018-05-16T08:25:18.585Z,90.45
2018-05-16T08:26:19.230Z,90.26
2018-05-16T08:27:19.884Z,92.09
2018-05-16T08:28:20.462Z,92.57
2018-05-16T08:29:21.039Z,91.90
2018-05-16T08:30:21.619Z,91.71
2018-05-16T08:31:22.198Z,92.29
2018-05-16T08:32:22.779Z,90.55
2018-05-16T08:33:23.356Z,91.90
2018-05-16T08:34:23.936Z,92.86
2018-05-16T08:35:24.513Z,92.76
2018-05-16T08:36:25.093Z,93.15
2018-05-16T08:37:25.674Z,92.76
2018-05-16T08:38:26.252Z,93.15
2018-05-16T08:39:26.831Z,90.75
2018-05-16T08:40:27.415Z,92.38
2018-05-16T08:41:28.040Z,93.05
2018-05-16T08:42:28.619Z,93.24
2018-05-16T08:43:29.202Z,93.15
2018-05-16T08:44:29.820Z,93.82
2018-05-16T08:45:30.449Z,93.73
2018-05-16T08:46:31.029Z,93.63
2018-05-16T08:47:31.609Z,93.63
2018-05-16T08:48:32.187Z,92.86
2018-05-16T08:49:32.806Z,91.52
2018-05-16T08:50:33.436Z,89.30
2018-05-16T08:51:34.012Z,90.75
2018-05-16T08:52:34.593Z,91.13
2018-05-16T08:53:35.171Z,86.71
2018-05-16T08:54:35.752Z,90.26
2018-05-16T08:55:36.334Z,91.61
2018-05-16T08:56:36.909Z,86.99
2018-05-16T08:57:37.488Z,85.84
2018-05-16T08:58:38.067Z,88.73
2018-05-16T08:59:38.646Z,89.01
2018-05-16T09:01:23.577Z,86.99
2018-05-16T09:02:24.157Z,86.13
2018-05-16T09:03:24.737Z,89.01
2018-05-16T09:04:25.367Z,89.78
2018-05-16T09:05:25.947Z,89.78
2018-05-16T09:06:26.527Z,89.78
2018-05-16T09:07:27.107Z,91.22
2018-05-16T09:08:27.686Z,91.75
2018-05-16T09:09:28.316Z,88.53
2018-05-16T09:10:28.895Z,90.84
2018-05-16T09:11:29.473Z,89.25
2018-05-16T09:12:30.058Z,90.98
2018-05-16T09:13:30.635Z,88.48
2018-05-16T09:14:31.264Z,91.17
2018-05-16T09:15:31.842Z,90.69
2018-05-16T09:16:32.421Z,91.75
2018-05-16T09:17:32.999Z,91.66
2018-05-16T09:18:33.578Z,90.21
2018-05-16T09:19:34.157Z,90.50
2018-05-16T09:20:34.787Z,91.66
2018-05-16T09:21:35.364Z,92.04
2018-05-16T09:22:35.944Z,91.94
2018-05-16T09:23:36.521Z,92.13
2018-05-16T09:24:37.102Z,91.94
2018-05-16T09:25:37.679Z,91.94
2018-05-16T09:26:38.258Z,92.04
2018-05-16T09:27:38.841Z,91.75
2018-05-16T09:28:39.422Z,92.43
2018-05-16T09:29:39.998Z,92.52
2018-05-16T09:30:40.579Z,91.66
2018-05-16T09:31:41.157Z,92.04
2018-05-16T09:32:41.789Z,92.23
2018-05-16T09:33:42.417Z,92.04
2018-05-16T09:34:42.999Z,91.85
2018-05-16T09:35:43.575Z,91.94
2018-05-16T09:36:44.155Z,91.94
2018-05-16T09:37:44.734Z,91.85
2018-05-16T09:38:45.313Z,91.85
2018-05-16T09:39:45.895Z,92.04
2018-05-16T09:40:46.470Z,92.04
2018-05-16T09:41:47.048Z,92.04
2018-05-16T09:42:47.629Z,91.94
2018-05-16T09:43:48.208Z,91.85
2018-05-16T09:44:48.789Z,91.94
2018-05-16T09:45:49.525Z,92.13
2018-05-16T09:46:49.998Z,91.94
2018-05-16T09:47:50.577Z,92.13
2018-05-16T09:48:51.158Z,91.75
2018-05-16T09:49:51.735Z,91.85
2018-05-16T09:51:36.760Z,91.75
2018-05-16T09:52:37.298Z,91.75
2018-05-16T09:53:37.878Z,91.75
2018-05-16T09:54:38.457Z,91.75
2018-05-16T09:55:39.084Z,91.75
2018-05-16T09:56:39.664Z,91.56
2018-05-16T09:57:40.243Z,91.27
2018-05-16T09:58:40.821Z,91.17
2018-05-16T09:59:41.403Z,91.27
2018-05-16T10:00:41.979Z,91.36
2018-05-16T10:01:42.558Z,91.27
2018-05-16T10:02:43.203Z,91.27
2018-05-16T10:03:43.716Z,91.08
2018-05-16T10:04:44.295Z,90.89
2018-05-16T10:05:44.874Z,91.08
2018-05-16T10:06:45.512Z,90.89
2018-05-16T10:07:46.083Z,91.08
2018-05-16T10:08:46.661Z,91.17
2018-05-16T10:09:47.281Z,91.08
2018-05-16T10:10:47.824Z,91.17
2018-05-16T10:11:48.400Z,91.08
2018-05-16T10:12:48.979Z,90.98
2018-05-16T10:13:49.610Z,90.69
2018-05-16T10:14:50.229Z,90.69
2018-05-16T10:15:50.813Z,90.89
2018-05-16T10:16:51.487Z,90.89
2018-05-16T10:17:52.061Z,90.69
2018-05-16T10:18:52.641Z,91.08
2018-05-16T10:19:53.221Z,90.98
2018-05-16T10:20:53.799Z,90.69
2018-05-16T10:21:54.380Z,90.59
2018-05-16T10:22:54.960Z,91.08
2018-05-16T10:23:55.541Z,91.03
2018-05-16T10:24:56.123Z,91.17
2018-05-16T10:25:56.753Z,91.22
2018-05-16T10:26:57.332Z,90.83
2018-05-16T10:27:57.913Z,90.64
2018-05-16T10:28:58.492Z,90.59
2018-05-16T10:29:59.073Z,90.55
2018-05-16T10:30:59.651Z,90.69
2018-05-16T10:32:00.233Z,90.45
2018-05-16T10:33:00.864Z,90.73
2018-05-16T10:34:01.442Z,90.73
2018-05-16T10:35:02.023Z,90.35
2018-05-16T10:36:02.605Z,90.26
2018-05-16T10:37:03.185Z,90.35
2018-05-16T10:38:03.819Z,90.55
2018-05-16T10:39:04.395Z,90.35
2018-05-16T10:40:04.975Z,90.26
2018-05-16T10:41:49.906Z,90.35
2018-05-16T10:42:50.488Z,90.35
2018-05-16T10:43:51.071Z,90.06
2018-05-16T10:44:51.665Z,90.26
2018-05-16T10:45:52.278Z,90.26
2018-05-16T10:46:52.862Z,89.87
2018-05-16T10:47:53.536Z,90.35
2018-05-16T10:48:54.118Z,89.87
2018-05-16T10:49:54.749Z,89.87
2018-05-16T10:50:55.333Z,89.87
2018-05-16T10:52:57.537Z,89.87
2018-05-16T10:53:58.125Z,89.97
2018-05-16T10:54:58.764Z,90.06
2018-05-16T10:55:59.621Z,89.49
2018-05-16T10:56:59.943Z,89.49
2018-05-16T10:58:00.527Z,89.68
2018-05-16T10:59:01.117Z,89.68
2018-05-16T11:00:01.703Z,89.39
2018-05-16T11:01:02.292Z,89.20
2018-05-16T11:02:02.881Z,89.49
2018-05-16T11:03:03.470Z,89.20
2018-05-16T11:04:04.057Z,88.71
2018-05-16T11:05:04.647Z,89.01
2018-05-16T11:06:05.234Z,89.01
2018-05-16T11:07:05.823Z,89.05
2018-05-16T11:08:06.461Z,89.01
2018-05-16T11:09:07.054Z,88.85
2018-05-16T11:10:07.694Z,89.05
2018-05-16T11:11:08.334Z,88.67
2018-05-16T11:12:08.923Z,88.57
2018-05-16T11:13:09.513Z,89.15
2018-05-16T11:14:10.104Z,89.05
2018-05-16T11:15:10.692Z,88.85
2018-05-16T11:16:11.282Z,89.05
2018-05-16T11:17:11.872Z,89.15
2018-05-16T11:18:12.463Z,88.76
2018-05-16T11:19:13.054Z,88.57
2018-05-16T11:20:13.645Z,87.74
2018-05-16T11:22:15.803Z,87.65
2018-05-16T11:23:16.384Z,87.26
2018-05-16T11:24:16.966Z,86.59
2018-05-16T11:25:17.556Z,86.30
2018-05-16T11:26:18.151Z,86.40
2018-05-16T11:27:18.737Z,86.49
2018-05-16T11:28:19.331Z,86.25
2018-05-16T11:32:00.205Z,85.28
2018-05-16T11:35:39.669Z,84.80
2018-05-16T11:36:40.262Z,84.17
2018-05-16T11:40:45.842Z,83.98
2018-05-16T11:41:46.428Z,83.69
2018-05-16T11:42:47.015Z,83.20
2018-05-16T11:43:47.602Z,83.30
2018-05-16T11:45:05.960Z,82.62
2018-05-16T11:46:06.551Z,82.38
2018-05-16T11:47:07.134Z,82.28
2018-05-16T11:48:07.728Z,81.99
2018-05-16T11:49:08.326Z,82.18
2018-05-16T11:50:08.920Z,81.90
2018-05-16T11:52:11.248Z,81.41
2018-05-16T11:53:11.845Z,81.60
2018-05-16T11:54:12.439Z,80.58
2018-05-16T11:55:13.085Z,80.97
2018-05-16T11:56:13.684Z,80.68
2018-05-16T11:57:14.325Z,80.49
2018-05-16T11:58:14.921Z,80.10
2018-05-16T11:59:15.523Z,80.10
2018-05-16T12:00:16.107Z,79.43
2018-05-16T12:01:16.703Z,79.91
2018-05-16T12:02:17.298Z,79.66
2018-05-16T12:03:17.891Z,79.37
2018-05-16T12:04:18.488Z,79.08
2018-05-16T12:05:19.082Z,78.79
2018-05-16T12:06:19.679Z,78.31
2018-05-16T12:07:20.313Z,78.21
2018-05-16T12:08:20.910Z,77.67
2018-05-16T12:09:21.503Z,77.57
2018-05-16T12:10:22.151Z,77.28
2018-05-16T12:11:22.792Z,77.19
2018-05-16T12:12:23.390Z,76.61
2018-05-16T12:13:23.985Z,76.55
2018-05-16T12:14:24.581Z,76.16
2018-05-16T12:15:25.177Z,75.78
2018-05-16T12:16:25.822Z,75.58
2018-05-16T12:17:26.417Z,75.20
2018-05-16T12:18:27.013Z,74.85
2018-05-16T12:19:27.610Z,74.75
2018-05-16T12:20:28.206Z,74.36
2018-05-16T12:21:28.850Z,73.78
2018-05-16T12:22:29.447Z,74.07
2018-05-16T12:23:30.044Z,73.91
2018-05-16T12:24:30.637Z,73.53
2018-05-16T12:25:31.232Z,73.59
2018-05-16T12:26:31.878Z,73.04
2018-05-16T12:27:32.475Z,72.75
2018-05-16T12:28:33.071Z,72.75
2018-05-16T12:29:33.718Z,72.89
2018-05-16T12:30:34.314Z,72.02
2018-05-16T12:31:34.912Z,72.02
2018-05-16T12:32:35.506Z,71.04
2018-05-16T12:33:36.103Z,71.82
2018-05-16T12:35:21.217Z,71.34
2018-05-16T12:36:21.815Z,70.89
2018-05-16T12:37:22.460Z,70.60
2018-05-16T12:38:23.056Z,70.60
2018-05-16T12:39:23.651Z,70.01
2018-05-16T12:40:24.250Z,69.63
2018-05-16T12:41:24.856Z,69.73
2018-05-16T12:42:25.443Z,69.92
2018-05-16T12:43:26.031Z,69.18
2018-05-16T12:44:26.621Z,69.08
2018-05-16T12:45:27.210Z,69.27
2018-05-16T12:46:27.822Z,69.08
2018-05-16T12:47:28.536Z,68.60
2018-05-16T12:48:29.123Z,68.50
2018-05-16T12:49:29.763Z,68.30
2018-05-16T12:50:30.316Z,68.12
2018-05-16T12:52:32.545Z,68.15
2018-05-16T12:53:33.184Z,67.66
2018-05-16T12:54:33.778Z,67.85
2018-05-16T12:55:34.365Z,67.76
2018-05-16T12:56:34.957Z,67.37
2018-05-16T12:57:35.551Z,67.50
2018-05-16T12:58:36.139Z,67.02
2018-05-16T12:59:36.730Z,67.11
2018-05-16T13:00:37.321Z,66.63
2018-05-16T13:01:37.945Z,66.44
2018-05-16T13:02:38.503Z,66.44
2018-05-16T13:03:39.107Z,66.44
2018-05-16T13:04:39.729Z,65.85
2018-05-16T13:05:40.320Z,66.05
2018-05-16T13:06:41.004Z,66.05
2018-05-16T13:07:41.594Z,66.05
2018-05-16T13:08:42.186Z,66.08
2018-05-16T13:09:43.377Z,65.79
2018-05-16T13:10:44.022Z,65.69
2018-05-16T13:11:44.662Z,65.01
2018-05-16T13:12:45.256Z,65.40
2018-05-16T13:13:45.849Z,65.30
2018-05-16T13:14:46.441Z,65.30
2018-05-16T13:15:47.035Z,65.01
2018-05-16T13:17:17.428Z,65.01
2018-05-16T13:18:18.026Z,64.92
2018-05-16T13:19:18.628Z,65.01
2018-05-16T13:41:11.256Z,63.20
2018-05-16T13:43:13.493Z,63.20
2018-05-16T13:44:14.140Z,63.20
2018-05-16T13:45:14.739Z,63.42
2018-05-16T13:46:15.386Z,63.39
2018-05-16T13:47:15.984Z,63.59
2018-05-16T13:48:16.583Z,63.01
2018-05-16T13:49:17.181Z,63.29
2018-05-16T13:50:17.780Z,63.42
2018-05-16T13:51:18.377Z,63.32